Time;durP1;ratioP1;P1;durP2;ratioP2;P2;SDS_P1;SDS_P2;PMS_P1;PMS_P2;Temp;Humidity;BMP_temperature;BMP_pressure;BME280_temperature;BME280_humidity;BME280_pressure;Samples;Min_cycle;Max_cycle;Signal;HPM_P1;HPM_P2
2023/09/24 00:02:10;;;;;;;3.28;1.67;;;12.30;99.90;;;;;;5042010;28;20119;-87
2023/09/24 00:04:37;;;;;;;3.92;2.00;;;12.30;99.90;;;;;;5076279;28;20040;-86
2023/09/24 00:07:02;;;;;;;4.75;2.13;;;12.30;99.90;;;;;;5031493;28;20033;-88
2023/09/24 00:09:29;;;;;;;5.93;2.60;;;12.30;99.90;;;;;;5019239;28;20048;-88
2023/09/24 00:11:54;;;;;;;8.88;2.60;;;12.30;99.90;;;;;;5051617;28;20051;-88
2023/09/24 00:14:20;;;;;;;5.70;2.22;;;12.30;99.90;;;;;;5062069;28;20491;-87
2023/09/24 00:16:46;;;;;;;4.95;2.55;;;12.30;99.90;;;;;;5051098;28;20036;-88
2023/09/24 00:19:12;;;;;;;5.80;2.80;;;12.40;99.90;;;;;;5012255;28;20048;-88
2023/09/24 00:21:38;;;;;;;4.40;2.20;;;11.60;99.90;;;;;;5011059;28;20068;-86
2023/09/24 00:24:05;;;;;;;4.60;2.15;;;12.40;99.90;;;;;;5050690;28;20071;-88
2023/09/24 00:26:31;;;;;;;;;;;12.30;99.90;;;;;;5018764;28;20488;-88
2023/09/24 00:28:56;;;;;;;7.45;2.50;;;12.30;99.90;;;;;;5053250;28;19928;-88
2023/09/24 00:31:22;;;;;;;4.55;2.17;;;12.40;99.90;;;;;;5036626;28;20069;-88
2023/09/24 00:33:48;;;;;;;4.43;1.75;;;12.30;99.90;;;;;;5020413;28;20051;-88
2023/09/24 00:36:15;;;;;;;6.68;2.03;;;12.30;99.90;;;;;;5073241;28;20052;-88
2023/09/24 00:38:41;;;;;;;4.90;1.95;;;12.30;99.90;;;;;;5021110;28;20041;-87
2023/09/24 00:41:07;;;;;;;3.88;1.50;;;12.30;99.90;;;;;;5057846;28;20064;-88
2023/09/24 00:43:34;;;;;;;4.93;1.70;;;12.20;99.90;;;;;;5036084;28;20587;-88
2023/09/24 00:46:07;;;;;;;4.15;1.38;;;12.20;99.90;;;;;;5064265;28;20076;-89
2023/09/24 00:48:33;;;;;;;4.03;1.77;;;12.10;99.90;;;;;;5023434;28;20032;-87
2023/09/24 00:51:03;;;;;;;3.65;1.52;;;12.10;99.90;;;;;;5003097;28;20052;-86
2023/09/24 00:53:31;;;;;;;4.30;1.83;;;11.90;99.90;;;;;;5018296;28;20533;-88
2023/09/24 00:55:58;;;;;;;4.18;1.90;;;12.00;99.90;;;;;;5033725;28;20223;-86
2023/09/24 00:58:28;;;;;;;5.43;1.98;;;12.00;99.90;;;;;;5065379;28;20032;-87
2023/09/24 01:00:55;;;;;;;4.78;2.03;;;11.90;99.90;;;;;;5064516;28;20502;-87
2023/09/24 01:03:24;;;;;;;;;;;11.90;99.90;;;;;;5038360;28;20036;-87
2023/09/24 01:05:54;;;;;;;6.60;3.10;;;11.80;99.90;;;;;;5064665;28;19986;-87
2023/09/24 01:08:22;;;;;;;5.13;2.30;;;11.80;99.90;;;;;;5051033;28;20050;-88
2023/09/24 01:10:49;;;;;;;5.00;2.00;;;11.70;99.90;;;;;;5034683;28;20043;-87
2023/09/24 01:13:19;;;;;;;4.75;2.67;;;11.70;99.90;;;;;;5024399;28;20110;-87
2023/09/24 01:15:46;;;;;;;4.57;2.08;;;;;;;;;;5052780;28;20041;-88
2023/09/24 01:18:12;;;;;;;6.13;2.13;;;11.60;99.90;;;;;;5033843;28;20045;-88
2023/09/24 01:20:40;;;;;;;3.75;1.88;;;11.60;99.90;;;;;;5016447;28;20082;-88
2023/09/24 01:23:08;;;;;;;3.90;1.67;;;11.60;99.90;;;;;;5027602;28;20392;-88
2023/09/24 01:25:35;;;;;;;3.92;1.80;;;11.60;99.90;;;;;;5083042;28;20068;-88
2023/09/24 01:28:06;;;;;;;4.22;1.48;;;11.50;99.90;;;;;;5045157;28;20041;-87
2023/09/24 01:30:33;;;;;;;4.40;1.38;;;11.50;99.90;;;;;;5036868;28;20052;-88
2023/09/24 01:32:58;;;;;;;2.80;1.30;;;11.50;99.90;;;;;;5031334;28;20040;-88
2023/09/24 01:35:27;;;;;;;3.83;1.58;;;11.50;99.90;;;;;;5022431;28;20048;-87
2023/09/24 01:38:04;;;;;;;4.55;1.83;;;11.50;99.90;;;;;;5021713;28;20047;-87
2023/09/24 01:40:32;;;;;;;3.47;1.40;;;11.50;99.90;;;;;;5050413;28;20115;-89
2023/09/24 01:42:59;;;;;;;7.00;1.20;;;11.40;99.90;;;;;;5029768;28;20048;-88
2023/09/24 01:45:26;;;;;;;5.57;1.75;;;11.40;99.90;;;;;;5061065;28;20122;-88
2023/09/24 01:47:52;;;;;;;;;;;11.20;99.90;;;;;;5044015;28;20036;-88
2023/09/24 01:50:18;;;;;;;8.00;1.70;;;11.40;99.90;;;;;;5068888;28;19920;-88
2023/09/24 01:52:48;;;;;;;5.82;2.13;;;11.40;99.90;;;;;;5053332;28;20507;-88
2023/09/24 01:55:15;;;;;;;4.95;2.05;;;11.40;99.90;;;;;;5067276;28;20043;-87
2023/09/24 01:57:42;;;;;;;6.78;1.73;;;11.40;99.90;;;;;;5068043;28;20050;-88
2023/09/24 02:00:11;;;;;;;4.95;2.10;;;11.40;99.90;;;;;;5047897;28;20041;-87
2023/09/24 02:02:41;;;;;;;6.38;2.60;;;11.40;99.90;;;;;;5074661;28;20040;-87
2023/09/24 02:05:09;;;;;;;4.32;2.47;;;11.30;99.90;;;;;;5037314;28;20313;-87
2023/09/24 02:07:36;;;;;;;3.63;2.15;;;11.30;99.90;;;;;;5034788;28;20101;-87
2023/09/24 02:10:05;;;;;;;5.60;2.35;;;11.20;99.90;;;;;;5032955;28;20067;-87
2023/09/24 02:12:36;;;;;;;5.28;2.33;;;11.20;99.90;;;;;;5073596;28;20040;-87
2023/09/24 02:15:09;;;;;;;5.32;2.63;;;11.30;99.90;;;;;;5061688;28;20039;-88
2023/09/24 02:17:35;;;;;;;6.50;2.70;;;10.50;99.90;;;;;;5051525;28;20040;-87
2023/09/24 02:20:10;;;;;;;4.57;2.40;;;11.20;99.90;;;;;;5025592;28;20400;-87
2023/09/24 02:22:36;;;;;;;4.95;2.28;;;11.20;99.90;;;;;;5062961;28;20033;-86
2023/09/24 02:25:04;;;;;;;4.47;2.20;;;11.20;99.90;;;;;;5090532;28;20040;-87
2023/09/24 02:27:29;;;;;;;;;;;11.20;99.90;;;;;;5053851;28;20043;-87
2023/09/24 02:29:55;;;;;;;4.07;1.83;;;11.20;99.90;;;;;;5039718;28;19916;-86
2023/09/24 02:32:21;;;;;;;3.33;1.80;;;11.10;99.90;;;;;;5023741;28;20044;-88
2023/09/24 02:34:47;;;;;;;3.42;1.90;;;11.00;99.90;;;;;;5077881;28;20055;-89
2023/09/24 02:37:14;;;;;;;4.97;1.70;;;11.20;99.90;;;;;;5053851;28;20663;-87
2023/09/24 02:39:40;;;;;;;;;;;11.20;99.90;;;;;;5043171;28;20040;-87
2023/09/24 02:42:06;;;;;;;3.13;1.63;;;11.10;99.90;;;;;;5059835;28;19920;-87
2023/09/24 02:44:31;;;;;;;2.85;1.83;;;11.10;99.90;;;;;;5082650;28;20350;-87
2023/09/24 02:46:57;;;;;;;4.95;2.10;;;11.20;99.90;;;;;;5020672;28;20049;-87
2023/09/24 02:49:23;;;;;;;6.05;1.58;;;11.10;99.90;;;;;;5035660;28;20589;-88
2023/09/24 02:51:49;;;;;;;5.70;2.13;;;11.10;99.90;;;;;;5019245;28;20151;-87
2023/09/24 02:54:16;;;;;;;4.33;1.53;;;11.10;99.90;;;;;;5033894;28;20047;-87
2023/09/24 02:56:42;;;;;;;3.78;1.83;;;11.10;99.90;;;;;;5040103;28;20040;-87
2023/09/24 02:59:11;;;;;;;5.03;1.67;;;11.10;99.90;;;;;;5056430;28;20056;-87
2023/09/24 03:01:37;;;;;;;3.05;1.77;;;11.10;99.90;;;;;;5036268;28;20091;-87
2023/09/24 03:04:04;;;;;;;4.68;1.70;;;11.00;99.90;;;;;;5055901;28;20397;-86
2023/09/24 03:06:31;;;;;;;;;;;11.10;99.90;;;;;;5047669;28;20423;-87
2023/09/24 03:08:57;;;;;;;5.35;2.00;;;11.10;99.90;;;;;;5038248;28;20390;-86
2023/09/24 03:11:23;;;;;;;3.67;1.58;;;11.00;99.90;;;;;;5049728;28;20075;-87
2023/09/24 03:13:49;;;;;;;4.32;1.52;;;11.10;99.90;;;;;;5091332;28;20036;-84
2023/09/24 03:16:15;;;;;;;22.48;1.95;;;11.00;99.90;;;;;;5050332;28;20101;-87
2023/09/24 03:18:40;;;;;;;6.38;0.90;;;11.00;99.90;;;;;;5058368;28;20127;-86
2023/09/24 03:21:12;;;;;;;6.55;1.05;;;10.90;99.90;;;;;;5059878;28;20036;-86
2023/09/24 03:23:37;;;;;;;3.38;0.90;;;10.80;99.90;;;;;;5075328;28;20505;-86
2023/09/24 03:26:03;;;;;;;8.13;1.10;;;;;;;;;;5041163;28;20048;-86
2023/09/24 03:28:29;;;;;;;34.17;2.30;;;10.70;99.90;;;;;;5054721;28;20039;-86
2023/09/24 03:30:55;;;;;;;1.65;0.90;;;10.70;99.90;;;;;;5041235;28;20414;-87
2023/09/24 03:33:21;;;;;;;2.28;1.38;;;10.70;99.90;;;;;;5062746;28;20127;-86
2023/09/24 03:35:47;;;;;;;2.50;1.50;;;10.70;99.90;;;;;;5058997;28;20162;-86
2023/09/24 03:38:13;;;;;;;4.72;1.65;;;10.70;99.90;;;;;;5075853;28;20078;-86
2023/09/24 03:40:38;;;;;;;3.78;1.75;;;10.80;99.90;;;;;;5060325;28;20124;-86
2023/09/24 03:43:04;;;;;;;5.50;2.15;;;10.80;99.90;;;;;;5033234;28;20163;-86
2023/09/24 03:45:30;;;;;;;5.28;2.03;;;10.90;99.90;;;;;;5031720;28;20066;-87
2023/09/24 03:47:56;;;;;;;3.25;2.30;;;11.00;99.90;;;;;;5077500;28;20040;-87
2023/09/24 03:50:22;;;;;;;4.93;2.42;;;11.00;99.90;;;;;;5042586;28;20040;-88
2023/09/24 03:52:51;;;;;;;5.35;2.45;;;11.10;99.90;;;;;;5063188;28;20043;-86
2023/09/24 03:55:19;;;;;;;4.80;2.28;;;11.10;99.90;;;;;;5072058;28;20114;-87
2023/09/24 03:57:46;;;;;;;3.58;2.33;;;11.20;99.90;;;;;;5042767;28;20151;-87
2023/09/24 04:00:16;;;;;;;6.70;2.95;;;11.10;99.90;;;;;;5063037;28;20039;-87
2023/09/24 04:02:48;;;;;;;6.45;3.00;;;11.10;99.90;;;;;;5076533;28;20058;-89
2023/09/24 04:05:18;;;;;;;7.20;3.28;;;11.20;99.90;;;;;;5058608;28;20113;-87
2023/09/24 04:07:49;;;;;;;4.82;2.80;;;11.10;99.90;;;;;;5051324;28;20032;-86
2023/09/24 04:10:16;;;;;;;4.68;3.22;;;11.20;99.90;;;;;;5042379;28;20031;-87
2023/09/24 04:12:49;;;;;;;6.20;2.97;;;11.20;99.90;;;;;;5043534;28;20047;-87
2023/09/24 04:15:18;;;;;;;5.07;2.95;;;11.20;99.90;;;;;;5037140;28;20032;-87
2023/09/24 04:17:48;;;;;;;4.45;2.92;;;11.20;99.90;;;;;;5051826;28;20119;-88
2023/09/24 04:20:14;;;;;;;4.65;2.95;;;11.20;99.90;;;;;;5025342;28;20033;-86
2023/09/24 04:22:40;;;;;;;4.38;3.38;;;11.20;99.90;;;;;;5056916;28;20089;-86
2023/09/24 04:25:06;;;;;;;4.90;3.60;;;11.10;99.90;;;;;;5038993;28;20044;-87
2023/09/24 04:27:32;;;;;;;6.03;4.10;;;11.10;99.90;;;;;;5049040;28;20530;-87
2023/09/24 04:29:57;;;;;;;5.85;3.60;;;11.10;99.90;;;;;;5052317;28;20063;-87
2023/09/24 04:32:23;;;;;;;5.95;3.58;;;11.10;99.90;;;;;;5047221;28;20083;-88
2023/09/24 04:34:50;;;;;;;5.25;3.40;;;11.10;99.90;;;;;;5084827;28;20097;-86
2023/09/24 04:37:18;;;;;;;17.55;4.65;;;11.10;99.90;;;;;;5041632;28;20040;-88
2023/09/24 04:39:46;;;;;;;5.65;3.38;;;11.00;99.90;;;;;;5086459;28;20446;-86
2023/09/24 04:42:11;;;;;;;;;;;11.10;99.90;;;;;;5058526;28;20517;-87
2023/09/24 04:44:38;;;;;;;7.85;3.88;;;11.00;99.90;;;;;;5081714;28;19920;-86
2023/09/24 04:47:04;;;;;;;5.90;3.72;;;11.10;99.90;;;;;;5068725;28;20146;-83
2023/09/24 04:49:31;;;;;;;6.97;4.40;;;11.10;99.90;;;;;;5057569;28;20043;-87
2023/09/24 04:51:56;;;;;;;7.22;4.00;;;11.00;99.90;;;;;;5058178;28;20036;-87
2023/09/24 04:54:22;;;;;;;6.78;4.03;;;11.00;99.90;;;;;;5056470;28;20070;-87
2023/09/24 04:56:49;;;;;;;6.25;3.70;;;11.00;99.90;;;;;;5036202;28;20048;-87
2023/09/24 04:59:15;;;;;;;5.75;4.00;;;10.90;99.90;;;;;;5059175;28;20032;-86
2023/09/24 05:01:41;;;;;;;6.72;3.90;;;10.90;99.90;;;;;;5058464;28;20036;-87
2023/09/24 05:04:07;;;;;;;5.20;4.03;;;10.90;99.90;;;;;;5070552;28;20064;-86
2023/09/24 05:06:33;;;;;;;6.63;4.38;;;10.90;99.90;;;;;;5057475;28;20684;-86
2023/09/24 05:08:59;;;;;;;5.57;3.97;;;10.80;99.90;;;;;;5077167;28;20101;-87
2023/09/24 05:11:25;;;;;;;6.75;4.00;;;10.80;99.90;;;;;;5055005;28;20032;-86
2023/09/24 05:13:51;;;;;;;5.97;4.38;;;10.80;99.90;;;;;;5081550;28;20048;-87
2023/09/24 05:16:19;;;;;;;6.97;4.13;;;10.80;99.90;;;;;;5042053;28;20546;-87
2023/09/24 05:18:44;;;;;;;7.03;3.80;;;10.70;99.90;;;;;;5038431;28;20097;-87
2023/09/24 05:21:17;;;;;;;8.70;4.05;;;10.70;99.90;;;;;;5108396;28;20421;-86
2023/09/24 05:23:45;;;;;;;4.93;3.67;;;10.70;99.90;;;;;;5045827;28;20036;-87
2023/09/24 05:26:14;;;;;;;4.93;3.70;;;10.80;99.90;;;;;;5057015;28;20473;-87
2023/09/24 05:28:41;;;;;;;6.07;3.90;;;10.80;99.90;;;;;;5052850;28;20146;-86
2023/09/24 05:31:08;;;;;;;7.53;3.95;;;10.80;99.90;;;;;;5037681;28;20550;-88
2023/09/24 05:33:33;;;;;;;6.00;4.05;;;10.70;99.90;;;;;;5055816;28;20100;-87
2023/09/24 05:35:59;;;;;;;4.95;3.88;;;10.70;99.90;;;;;;5072706;28;20119;-88
2023/09/24 05:38:29;;;;;;;7.35;3.85;;;10.80;99.90;;;;;;5077881;28;20036;-87
2023/09/24 05:40:55;;;;;;;5.60;4.03;;;10.70;99.90;;;;;;5070728;28;20433;-86
2023/09/24 05:43:22;;;;;;;6.60;4.05;;;10.80;99.90;;;;;;5026904;28;20055;-88
2023/09/24 05:45:49;;;;;;;6.83;4.03;;;10.80;99.90;;;;;;5023695;28;20040;-87
2023/09/24 05:48:15;;;;;;;7.13;4.25;;;10.90;99.90;;;;;;5039522;28;20047;-88
2023/09/24 05:50:44;;;;;;;5.57;4.18;;;10.90;99.90;;;;;;5052490;28;20048;-86
2023/09/24 05:53:14;;;;;;;10.07;4.38;;;11.00;99.90;;;;;;5029939;28;20051;-86
2023/09/24 05:55:50;;;;;;;7.07;3.63;;;11.00;99.90;;;;;;5050036;28;20054;-87
2023/09/24 05:58:15;;;;;;;7.03;4.10;;;11.00;99.90;;;;;;5064265;28;20051;-88
2023/09/24 06:00:44;;;;;;;7.18;3.85;;;11.20;99.90;;;;;;5080005;28;20033;-89
2023/09/24 06:03:09;;;;;;;4.70;3.70;;;11.20;99.90;;;;;;5060569;28;20686;-86
2023/09/24 06:05:38;;;;;;;7.32;4.10;;;11.30;99.90;;;;;;5046114;28;20134;-87
2023/09/24 06:08:05;;;;;;;5.28;3.47;;;11.30;99.90;;;;;;5077516;28;20047;-85
2023/09/24 06:10:37;;;;;;;7.95;3.80;;;11.30;99.90;;;;;;5054414;28;20041;-86
2023/09/24 06:13:03;;;;;;;5.43;3.78;;;11.40;99.90;;;;;;5035049;28;20045;-87
2023/09/24 06:15:29;;;;;;;5.95;3.55;;;11.40;99.90;;;;;;5066476;28;20032;-85
2023/09/24 06:17:55;;;;;;;6.82;3.20;;;11.40;99.90;;;;;;5021097;28;20102;-86
2023/09/24 06:20:22;;;;;;;6.47;3.75;;;11.50;99.90;;;;;;5020370;28;20036;-86
2023/09/24 06:22:53;;;;;;;4.53;3.20;;;11.50;99.90;;;;;;5029269;28;20037;-88
2023/09/24 06:25:19;;;;;;;7.03;3.30;;;11.50;99.90;;;;;;5076797;28;20462;-86
2023/09/24 06:27:45;;;;;;;7.43;3.67;;;11.50;99.90;;;;;;5035112;28;20087;-86
2023/09/24 06:30:11;;;;;;;7.22;3.95;;;11.50;99.90;;;;;;5046632;28;20068;-87
2023/09/24 06:32:37;;;;;;;4.30;3.17;;;11.60;99.90;;;;;;5052263;28;20144;-89
2023/09/24 06:35:04;;;;;;;4.35;2.97;;;11.60;99.90;;;;;;5027271;28;20115;-87
2023/09/24 06:37:30;;;;;;;5.23;3.63;;;11.70;99.90;;;;;;5050973;28;20068;-89
2023/09/24 06:39:57;;;;;;;5.07;3.42;;;11.80;99.90;;;;;;5020625;28;20356;-86
2023/09/24 06:42:22;;;;;;;7.47;3.67;;;11.80;99.90;;;;;;5059586;28;20051;-86
2023/09/24 06:44:50;;;;;;;7.68;3.20;;;12.00;99.90;;;;;;5032216;28;20052;-88
2023/09/24 06:47:16;;;;;;;5.65;3.42;;;12.20;99.90;;;;;;5076725;28;20036;-90
2023/09/24 06:49:42;;;;;;;4.72;3.42;;;12.60;99.90;;;;;;5050724;28;20052;-90
2023/09/24 06:52:08;;;;;;;7.65;3.20;;;12.70;99.90;;;;;;5021366;28;20040;-88
2023/09/24 06:54:34;;;;;;;6.50;3.03;;;12.90;99.90;;;;;;5062245;28;20071;-88
2023/09/24 06:57:00;;;;;;;5.25;3.53;;;13.00;99.90;;;;;;5040251;28;20124;-87
2023/09/24 06:59:26;;;;;;;7.97;3.28;;;13.10;99.90;;;;;;5052043;28;20470;-87
2023/09/24 07:01:53;;;;;;;5.50;2.78;;;13.20;99.90;;;;;;5069355;28;20126;-88
2023/09/24 07:04:19;;;;;;;5.32;3.08;;;13.30;99.90;;;;;;5052861;28;20116;-89
2023/09/24 07:06:45;;;;;;;3.83;2.67;;;13.40;99.90;;;;;;5024796;28;20487;-87
2023/09/24 07:09:11;;;;;;;5.20;2.90;;;13.40;99.90;;;;;;5056074;28;20405;-86
2023/09/24 07:11:38;;;;;;;5.15;2.75;;;13.50;99.90;;;;;;5037129;28;20082;-87
2023/09/24 07:14:04;;;;;;;;;;;13.50;99.90;;;;;;5052576;28;20045;-88
2023/09/24 07:16:30;;;;;;;6.40;2.95;;;;;;;;;;5044957;28;19938;-87
2023/09/24 07:18:57;;;;;;;3.70;2.77;;;13.70;99.90;;;;;;5040721;28;20056;-89
2023/09/24 07:21:33;;;;;;;5.72;3.20;;;13.70;99.90;;;;;;5025463;28;20109;-86
2023/09/24 07:23:59;;;;;;;6.72;2.45;;;14.00;99.90;;;;;;5055221;28;20036;-87
2023/09/24 07:26:26;;;;;;;6.07;3.03;;;14.10;99.90;;;;;;5044690;28;20075;-86
2023/09/24 07:28:52;;;;;;;5.72;2.83;;;14.20;99.90;;;;;;5086931;28;20127;-92
2023/09/24 07:31:22;;;;;;;4.78;2.88;;;14.30;99.90;;;;;;5045795;28;20043;-88
2023/09/24 07:33:59;;;;;;;6.35;3.20;;;14.40;99.90;;;;;;5051637;28;20173;-89
2023/09/24 07:36:25;;;;;;;4.90;2.72;;;14.50;99.90;;;;;;5087790;28;20079;-87
2023/09/24 07:38:51;;;;;;;5.20;3.08;;;14.80;99.90;;;;;;5068670;28;20044;-89
2023/09/24 07:41:18;;;;;;;3.78;2.58;;;15.10;99.90;;;;;;5049539;28;20036;-88
2023/09/24 07:43:44;;;;;;;7.70;2.88;;;15.30;99.90;;;;;;5039265;28;20056;-86
2023/09/24 07:46:12;;;;;;;5.13;2.75;;;15.70;99.90;;;;;;5022546;28;20032;-87
2023/09/24 07:48:41;;;;;;;5.00;2.92;;;16.50;99.90;;;;;;5045194;28;20070;-85
2023/09/24 07:51:13;;;;;;;7.82;2.90;;;17.50;99.90;;;;;;5014779;28;20041;-88
2023/09/24 07:53:39;;;;;;;4.10;2.60;;;18.30;99.90;;;;;;5055605;28;20040;-88
2023/09/24 07:56:10;;;;;;;4.93;2.70;;;19.20;99.90;;;;;;5009148;28;20037;-89
2023/09/24 07:58:37;;;;;;;4.13;2.70;;;19.60;99.90;;;;;;5068062;28;20444;-86
2023/09/24 08:01:08;;;;;;;5.40;2.35;;;19.80;99.90;;;;;;5039221;28;20533;-88
2023/09/24 08:03:34;;;;;;;5.10;2.42;;;19.60;99.90;;;;;;5023333;28;20076;-87
2023/09/24 08:06:01;;;;;;;3.57;2.30;;;19.30;99.90;;;;;;5010074;28;20601;-88
2023/09/24 08:08:28;;;;;;;4.20;2.40;;;19.00;99.90;;;;;;5044767;28;20171;-86
2023/09/24 08:10:53;;;;;;;6.53;2.65;;;19.30;99.90;;;;;;5013203;28;20045;-89
2023/09/24 08:13:20;;;;;;;5.10;2.42;;;19.60;99.90;;;;;;5038700;28;20102;-90
2023/09/24 08:15:47;;;;;;;4.05;1.95;;;19.80;99.90;;;;;;5024960;28;20059;-88
2023/09/24 08:18:12;;;;;;;3.83;2.15;;;19.60;99.90;;;;;;5083805;28;20083;-90
2023/09/24 08:20:39;;;;;;;4.10;2.03;;;19.50;99.90;;;;;;5069167;28;20167;-85
2023/09/24 08:23:06;;;;;;;5.18;2.45;;;19.30;99.90;;;;;;5040486;28;20056;-88
2023/09/24 08:25:32;;;;;;;4.70;2.00;;;19.40;99.90;;;;;;5025686;28;20063;-88
2023/09/24 08:27:59;;;;;;;3.78;1.92;;;19.40;99.90;;;;;;5044245;28;20041;-89
2023/09/24 08:30:28;;;;;;;4.60;2.10;;;19.40;99.90;;;;;;5041063;28;20033;-89
2023/09/24 08:32:54;;;;;;;3.28;2.08;;;19.30;99.90;;;;;;5035796;28;20045;-84
2023/09/24 08:35:20;;;;;;;4.22;2.00;;;19.10;99.90;;;;;;5087916;28;20048;-85
2023/09/24 08:37:45;;;;;;;2.45;1.70;;;18.80;99.90;;;;;;5054127;28;20123;-86
2023/09/24 08:40:12;;;;;;;6.25;1.92;;;18.60;99.90;;;;;;5071954;28;20041;-88
2023/09/24 08:42:39;;;;;;;5.00;1.90;;;18.50;99.90;;;;;;5035473;28;20056;-87
2023/09/24 08:45:10;;;;;;;6.32;2.28;;;18.30;99.90;;;;;;5065362;28;20044;-87
2023/09/24 08:47:38;;;;;;;5.22;1.90;;;18.20;99.90;;;;;;5070210;28;20090;-87
2023/09/24 08:50:05;;;;;;;5.03;1.90;;;18.10;99.90;;;;;;5020403;28;20123;-89
2023/09/24 08:52:36;;;;;;;3.50;1.48;;;18.00;99.90;;;;;;5037934;28;20046;-87
2023/09/24 08:55:06;;;;;;;7.15;2.13;;;18.00;99.90;;;;;;5075357;28;20052;-85
2023/09/24 08:57:33;;;;;;;3.03;1.38;;;18.00;99.90;;;;;;5036486;28;20044;-86
2023/09/24 09:00:00;;;;;;;3.30;1.88;;;18.00;99.90;;;;;;5042384;28;20056;-84
2023/09/24 09:02:25;;;;;;;4.82;1.92;;;18.10;99.90;;;;;;5063316;28;20036;-86
2023/09/24 09:04:52;;;;;;;4.00;1.60;;;18.10;99.90;;;;;;5038538;28;20044;-87
2023/09/24 09:07:17;;;;;;;4.63;1.85;;;18.20;99.90;;;;;;5069415;28;20065;-90
2023/09/24 09:09:59;;;;;;;3.35;1.50;;;18.20;99.90;;;;;;5043505;28;20032;-85
2023/09/24 09:12:25;;;;;;;6.88;2.10;;;18.20;99.90;;;;;;5039875;28;20032;-90
2023/09/24 09:14:53;;;;;;;3.95;1.42;;;18.20;99.90;;;;;;5026223;28;20045;-88
2023/09/24 09:17:19;;;;;;;4.00;1.50;;;18.20;99.90;;;;;;5063109;28;20048;-83
2023/09/24 09:19:59;;;;;;;4.47;1.17;;;18.20;99.90;;;;;;5024218;28;20048;-87
2023/09/24 09:22:29;;;;;;;4.72;1.48;;;18.30;99.90;;;;;;5028671;28;20047;-85
2023/09/24 09:25:06;;;;;;;2.50;1.08;;;18.30;99.90;;;;;;5042357;28;20095;-88
2023/09/24 09:27:36;;;;;;;3.55;1.50;;;18.40;99.90;;;;;;5037971;28;20119;-87
2023/09/24 09:30:15;;;;;;;5.60;1.52;;;18.40;99.90;;;;;;5063443;28;20053;-87
2023/09/24 09:32:44;;;;;;;3.03;1.27;;;18.40;99.90;;;;;;5033356;28;20051;-89
2023/09/24 09:35:10;;;;;;;3.30;1.30;;;18.40;99.90;;;;;;5031437;28;20048;-87
2023/09/24 09:37:38;;;;;;;3.55;1.60;;;18.50;99.90;;;;;;5067420;28;20040;-86
2023/09/24 09:40:06;;;;;;;3.65;1.35;;;18.50;99.90;;;;;;5042365;28;20053;-88
2023/09/24 09:42:35;;;;;;;4.82;1.30;;;18.50;99.90;;;;;;5053174;28;20450;-86
2023/09/24 09:45:07;;;;;;;3.95;1.35;;;18.50;99.90;;;;;;5097505;28;20541;-86
2023/09/24 09:47:34;;;;;;;3.08;1.30;;;18.60;99.90;;;;;;5052619;28;20029;-84
2023/09/24 09:50:01;;;;;;;3.33;1.52;;;18.60;99.90;;;;;;5055230;28;20479;-88
2023/09/24 09:52:32;;;;;;;2.72;1.30;;;18.60;99.90;;;;;;5038298;28;20123;-84
2023/09/24 09:55:03;;;;;;;4.38;1.10;;;18.50;99.90;;;;;;5070227;28;20044;-83
2023/09/24 09:57:33;;;;;;;3.22;1.40;;;18.60;99.90;;;;;;5073300;28;20663;-84
2023/09/24 10:00:09;;;;;;;3.78;1.55;;;18.60;99.90;;;;;;5039750;28;20509;-83
2023/09/24 10:02:36;;;;;;;2.97;1.20;;;18.60;99.90;;;;;;5040508;28;20111;-87
2023/09/24 10:05:02;;;;;;;5.95;1.17;;;18.50;99.90;;;;;;5052881;28;20040;-87
2023/09/24 10:07:28;;;;;;;3.90;1.20;;;18.50;99.90;;;;;;5038184;28;20036;-88
2023/09/24 10:09:53;;;;;;;2.25;0.95;;;18.50;99.90;;;;;;5085174;28;20042;-84
2023/09/24 10:12:37;;;;;;;3.50;1.38;;;18.60;99.90;;;;;;5035840;28;20041;-86
2023/09/24 10:15:26;;;;;;;2.97;1.15;;;18.60;99.90;;;;;;5046232;28;20040;-87
2023/09/24 10:18:07;;;;;;;3.55;1.02;;;18.60;99.90;;;;;;5058398;28;20039;-85
2023/09/24 10:20:55;;;;;;;3.20;1.20;;;18.60;99.90;;;;;;5053844;28;20505;-87
2023/09/24 10:23:31;;;;;;;3.13;1.00;;;18.70;99.90;;;;;;5077668;28;20380;-87
2023/09/24 10:26:00;;;;;;;2.83;1.00;;;18.70;99.90;;;;;;5090209;28;20071;-87
2023/09/24 10:28:58;;;;;;;4.07;1.30;;;18.80;99.90;;;;;;5069349;28;20069;-85
2023/09/24 10:31:25;;;;;;;3.70;1.48;;;18.80;99.90;;;;;;5026280;28;20043;-84
2023/09/24 10:33:58;;;;;;;3.45;1.00;;;18.80;99.90;;;;;;5022314;28;20044;-89
2023/09/24 10:36:29;;;;;;;3.50;1.23;;;18.90;99.90;;;;;;5069762;28;20036;-90
2023/09/24 10:39:07;;;;;;;2.97;1.00;;;18.90;99.90;;;;;;5092635;28;20040;-89
2023/09/24 10:41:34;;;;;;;2.92;0.85;;;19.00;99.90;;;;;;5053515;28;20040;-87
2023/09/24 10:44:29;;;;;;;2.83;0.90;;;19.00;99.90;;;;;;5052073;28;20052;-87
2023/09/24 10:46:55;;;;;;;3.47;1.13;;;19.10;99.90;;;;;;5030774;28;20042;-86
2023/09/24 10:49:24;;;;;;;3.70;1.30;;;19.20;99.90;;;;;;5029121;28;20398;-86
2023/09/24 10:51:58;;;;;;;2.58;1.08;;;19.30;99.90;;;;;;5068110;28;20036;-84
2023/09/24 10:54:24;;;;;;;3.90;1.05;;;19.30;99.90;;;;;;5056281;28;20032;-84
2023/09/24 10:56:49;;;;;;;2.88;1.00;;;19.30;99.90;;;;;;5054968;28;20043;-85
2023/09/24 10:59:16;;;;;;;3.55;1.10;;;19.40;99.90;;;;;;5066011;28;20040;-88
2023/09/24 11:01:45;;;;;;;2.67;0.85;;;19.40;99.90;;;;;;5038504;28;20494;-87
2023/09/24 11:04:23;;;;;;;3.25;0.95;;;19.50;99.90;;;;;;5037777;28;20090;-89
2023/09/24 11:06:49;;;;;;;2.67;1.20;;;19.50;99.90;;;;;;5092611;28;20123;-88
2023/09/24 11:09:17;;;;;;;4.07;0.98;;;19.50;99.90;;;;;;5064733;28;20767;-86
2023/09/24 11:11:43;;;;;;;3.00;1.20;;;19.50;99.90;;;;;;5038246;28;20043;-86
2023/09/24 11:14:25;;;;;;;3.10;1.00;;;19.50;99.90;;;;;;5041799;28;21261;-87
2023/09/24 11:16:53;;;;;;;2.95;1.02;;;19.50;99.90;;;;;;5069495;28;20470;-83
2023/09/24 11:19:48;;;;;;;4.47;1.30;;;19.50;99.90;;;;;;5101977;28;20048;-84
2023/09/24 11:22:28;;;;;;;3.20;1.10;;;19.50;99.90;;;;;;5056303;28;20036;-85
2023/09/24 11:25:13;;;;;;;3.92;1.13;;;19.50;99.90;;;;;;5062693;28;20048;-85
2023/09/24 11:27:56;;;;;;;3.65;1.20;;;19.60;99.90;;;;;;5056738;28;20106;-88
2023/09/24 11:30:27;;;;;;;5.57;1.20;;;19.60;99.90;;;;;;5068801;28;20044;-88
2023/09/24 11:32:53;;;;;;;2.83;0.95;;;19.60;99.90;;;;;;5063114;28;20044;-85
2023/09/24 11:35:21;;;;;;;3.53;1.00;;;19.60;99.90;;;;;;5062147;28;20040;-86
2023/09/24 11:37:48;;;;;;;2.33;0.98;;;19.70;99.90;;;;;;5058345;28;20121;-86
2023/09/24 11:40:24;;;;;;;3.17;0.85;;;19.60;99.90;;;;;;5058999;28;20179;-85
2023/09/24 11:43:04;;;;;;;1.88;0.88;;;19.60;99.90;;;;;;5059398;28;20087;-86
2023/09/24 11:45:42;;;;;;;1.85;0.80;;;19.60;99.90;;;;;;5093287;28;20036;-86
2023/09/24 11:48:14;;;;;;;4.68;1.10;;;19.60;99.90;;;;;;5061033;28;20048;-86
2023/09/24 11:50:43;;;;;;;2.20;0.80;;;19.60;99.90;;;;;;5077215;28;20043;-85
2023/09/24 11:53:09;;;;;;;2.42;0.90;;;19.60;99.90;;;;;;5070557;28;20033;-86
2023/09/24 11:55:35;;;;;;;3.63;1.08;;;19.50;99.90;;;;;;5072865;28;20374;-88
2023/09/24 11:58:01;;;;;;;2.30;1.07;;;19.50;99.90;;;;;;5058573;28;20032;-89
2023/09/24 12:00:27;;;;;;;5.28;1.17;;;19.50;99.90;;;;;;5043467;28;20041;-86
2023/09/24 12:02:53;;;;;;;3.08;0.93;;;19.40;99.90;;;;;;5039071;28;20526;-90
2023/09/24 12:05:20;;;;;;;1.80;0.85;;;19.40;99.90;;;;;;5037470;28;20036;-87
2023/09/24 12:07:48;;;;;;;2.60;0.90;;;19.30;99.90;;;;;;5042987;28;20125;-89
2023/09/24 12:10:14;;;;;;;2.13;0.82;;;19.20;99.90;;;;;;5060411;28;20517;-87
2023/09/24 12:12:40;;;;;;;2.65;1.05;;;19.20;99.90;;;;;;5079367;28;20135;-91
2023/09/24 12:15:07;;;;;;;2.08;0.73;;;19.10;99.90;;;;;;5057862;28;20040;-88
2023/09/24 12:17:32;;;;;;;;;;;19.10;99.90;;;;;;5076054;28;20036;-88
2023/09/24 12:19:58;;;;;;;1.58;0.70;;;19.00;99.90;;;;;;5052160;28;19969;-91
2023/09/24 12:22:24;;;;;;;3.15;1.00;;;19.20;99.90;;;;;;5054995;28;20105;-86
2023/09/24 12:24:50;;;;;;;4.00;1.20;;;19.00;99.90;;;;;;5039118;28;20068;-87
2023/09/24 12:27:16;;;;;;;2.83;0.85;;;19.10;99.90;;;;;;5054547;28;20120;-88
2023/09/24 12:29:41;;;;;;;2.33;0.90;;;19.10;99.90;;;;;;5058688;28;20467;-87
2023/09/24 12:32:07;;;;;;;3.17;0.80;;;19.60;99.90;;;;;;5083035;28;20109;-87
2023/09/24 12:34:33;;;;;;;1.75;0.80;;;19.10;99.90;;;;;;5072635;28;20040;-87
2023/09/24 12:36:58;;;;;;;2.58;0.98;;;19.20;99.90;;;;;;5039203;28;20559;-88
2023/09/24 12:39:25;;;;;;;2.08;0.70;;;19.30;99.90;;;;;;5045494;28;20097;-87
2023/09/24 12:41:51;;;;;;;2.08;0.80;;;19.30;99.90;;;;;;5078988;28;20040;-89
2023/09/24 12:44:17;;;;;;;2.38;0.98;;;19.30;99.90;;;;;;5038589;28;20543;-85
2023/09/24 12:46:43;;;;;;;4.00;1.00;;;19.40;99.90;;;;;;5058872;28;20093;-88
2023/09/24 12:49:09;;;;;;;2.65;0.98;;;19.40;99.90;;;;;;5051513;28;20033;-88
2023/09/24 12:51:35;;;;;;;1.13;0.70;;;19.40;99.90;;;;;;5052815;28;20047;-88
2023/09/24 12:54:02;;;;;;;2.65;0.65;;;19.40;99.90;;;;;;5062450;28;20043;-90
2023/09/24 12:56:28;;;;;;;1.58;0.60;;;19.40;99.90;;;;;;5045755;28;20051;-86